Flight Track Log - Related Links

Times and Time Zones

All times are in EST time to prevent confusion due to time zone crossing. See the CHQ5332 flight status page for this flight to view local times or setup timezone preferences in your user account.

Time Position Orientation Groundspeed Altitude Reporting Facility
EST Latitude Longitude Course Direction KTS MPH feet Rate Location/Type
Mon 08:41:55 PM 43.8103 -91.1500 114° Southeast 235 270 6,100  Level Minneapolis Center
Mon 08:42:57 PM 43.7700 -91.0442 118° Southeast 272 313 9,600 2,758 Climbing Minneapolis Center
Mon 08:43:59 PM 43.7319 -90.9392 117° Southeast 312 359 11,800 2,565 Climbing Minneapolis Center
Mon 08:44:00 PM 43.8274 -91.1599 119° Southeast  Level Estimated
Mon 08:45:00 PM 43.7754 -91.0633 115° Southeast  Level Estimated
Mon 08:45:01 PM 43.6869 -90.8128 116° Southeast 346 398 14,900  Level Minneapolis Center
Mon 08:46:00 PM 43.7428 -91.0029 125° Southeast  Level Estimated
Mon 08:46:02 PM 43.6419 -90.6878 116° Southeast 347 399 17,900  Level Minneapolis Center
Mon 08:47:04 PM 43.5994 -90.5739 117° Southeast 347 399 20,800 2,371 Climbing Minneapolis Center
Mon 08:48:06 PM 43.5553 -90.4500 116° Southeast 357 411 22,800 1,065 Climbing Minneapolis Center
Mon 08:49:08 PM 43.5033 -90.3119 117° Southeast 400 460 23,000 98 Climbing Minneapolis Center
Mon 08:50:09 PM 43.4483 -90.1567 116° Southeast 435 501 23,000  Level Minneapolis Center
Mon 08:51:11 PM 43.3894 -89.9975 117° Southeast 462 532 23,000  Level Minneapolis Center
Mon 08:52:13 PM 43.2869 -89.8442 133° Southeast 461 531 23,000 -387 Level Minneapolis Center
Mon 08:53:15 PM 43.1961 -89.7244 136° Southeast 460 529 22,200 -1,805 Descending Minneapolis Center
Mon 08:54:16 PM 43.1050 -89.6044 136° Southeast 460 529 19,300 -2,703 Descending Minneapolis Center
Mon 08:54:46 PM 43.0700 -89.5583 136° Southeast 446 513 18,100 -2,739 Descending Chicago Center
Mon 08:55:48 PM 42.9678 -89.4233 136° Southeast 431 496 15,100 -2,613 Descending Chicago Center
Mon 08:56:50 PM 42.8814 -89.3328 142° Southeast 407 468 12,700 -1,500 Descending Chicago Center
Mon 08:57:52 PM 42.7797 -89.3131 172° South 374 430 12,000 -774 Descending Chicago Center
Mon 08:58:54 PM 42.6906 -89.2389 149° Southeast 380 437 11,100 -919 Descending Chicago Center
Mon 08:59:56 PM 42.6083 -89.1550 143° Southeast 375 432 10,100 -484 Descending Chicago Center
Mon 09:00:58 PM 42.5422 -89.0528 131° Southeast 377 434 10,100 -48 Level Chicago Center
Mon 09:02:00 PM 42.4961 -88.8997 112° Southeast 369 425 10,000 -48 Descending Chicago Center
Mon 09:03:02 PM 42.4589 -88.7750 112° Southeast 361 415 10,000  Level Chicago Center
Mon 09:04:03 PM 42.4217 -88.6517 112° Southeast 356 410 10,000  Level Chicago Center
Mon 09:05:05 PM 42.3836 -88.5303 113° Southeast 354 407 10,000  Level Chicago Center
Mon 09:06:07 PM 42.3214 -88.4019 123° Southeast 363 418 10,000  Level Chicago Center
Mon 09:07:09 PM 42.2553 -88.3061 133° Southeast 352 405 10,000  Level Chicago Center
Mon 09:08:11 PM 42.1903 -88.2089 132° Southeast 350 403 10,000 -387 Level Chicago Center
Mon 09:09:13 PM 42.1292 -88.1136 131° Southeast 305 351 9,200 -1,069 Descending Chicago Center
Mon 09:09:52 PM 42.1167 -88.0500 105° East 291 335 8,200 -1,320 Descending Chicago TRACON
Mon 09:10:53 PM 42.0833 -87.9500 114° Southeast 274 315 7,000 -567 Descending Chicago TRACON
Mon 09:11:59 PM 42.0833 -87.8500 90° East 261 300 7,000 -476 Level Chicago TRACON
Mon 09:12:59 PM 42.0833 -87.7500 90° East 232 267 6,000 -1,150 Descending Chicago TRACON
Mon 09:13:59 PM 42.0667 -87.6833 109° East 229 264 4,700 -1,143 Descending Chicago TRACON
Mon 09:15:05 PM 42.0333 -87.7167 217° Southwest 190 219 3,600 -1,000 Descending Chicago TRACON
Mon 09:15:59 PM 42.0167 -87.7667 246° West 190 219 2,700 -900 Descending Chicago TRACON
Mon 09:17:05 PM 42.0000 -87.8333 251° West 133 153 1,800 -810 Descending Chicago TRACON
Mon 09:18:05 PM 42.0000 -87.8833 270° West 131 151 1,000 -800 Descending Chicago TRACON

Login

Don't have an account? Register now (free) for customized features, flight alerts, and more!